METAR Data
IDs: Format: Raw Decoded Include TAF

Data at: 1115 UTC 18 Jan 2022

KEGE 181056Z AUTO 12003KT 10SM CLR M13/M16 A3008 RMK AO2 SLP257 T11331156 FZRANO
KEGE 180956Z AUTO 00000KT 10SM CLR M13/M15 A3008 RMK AO2 SLP257 T11281150 FZRANO
KEGE 180856Z AUTO 10006KT 10SM CLR M13/M15 A3009 RMK AO2 SLP259 T11281150 56006 FZRANO
KEGE 180756Z AUTO 00000KT 10SM CLR M12/M14 A3009 RMK AO2 SLP266 T11171144 FZRANO
KEGE 180656Z AUTO 11004KT 10SM CLR M12/M14 A3010 RMK AO2 SLP280 T11171139 FZRANO
KEGE 180556Z AUTO 08006KT 10SM CLR M11/M14 A3011 RMK AO2 SLP290 T11111139 11011 21111 410061183 58003 FZRANO
KEGE 180456Z AUTO 00000KT 10SM CLR M10/M13 A3012 RMK AO2 SLP295 T11001133 FZRANO
KEGE 180356Z AUTO 00000KT 10SM CLR M09/M13 A3012 RMK AO2 SLP301 T10891128 FZRANO
KEGE 180256Z AUTO 11003KT 10SM CLR M08/M12 A3012 RMK AO2 SLP305 T10831122 51007 FZRANO
KEGE 180156Z AUTO 09005KT 10SM CLR M08/M12 A3012 RMK AO2 SLP298 T10781122 FZRANO
KEGE 180056Z 11005KT 10SM CLR M06/M11 A3011 RMK AO2 SLP289 T10561111
KEGE 172356Z 00000KT 10SM CLR M01/M11 A3010 RMK AO2 SLP271 T10111111 11006 21111 56013
KEGE 172256Z 00000KT 10SM CLR M01/M12 A3011 RMK AO2 SLP271 T10111117
KEGE 172156Z 00000KT 10SM CLR M02/M12 A3013 RMK AO2 SLP279 T10171117
KEGE 172056Z 33003KT 10SM CLR M02/M11 A3014 RMK AO2 SLP284 T10221106 58037
KEGE 171956Z 00000KT 10SM CLR M06/M12 A3020 RMK AO2 SLP312 T10561117
KEGE 171856Z 00000KT 10SM CLR M08/M13 A3023 RMK AO2 SLP329 T10831128
KEGE 171756Z 28003KT 10SM CLR M11/M14 A3027 RMK AO2 SLP355 60000 T11111144 11111 21183 58005
KEGE 171656Z 26003KT 10SM CLR M14/M17 A3029 RMK AO2 SLP365 T11391172
KEGE 171556Z 08003KT 10SM CLR M16/M19 A3029 RMK AO2 SNB03E49 SLP368 P0000 T11611189
KEGE 171456Z 10005KT 10SM CLR M18/M20 A3029 RMK AO2 SLP372 T11781200 53002
KEGE 171356Z AUTO 00000KT 10SM CLR M17/M19 A3029 RMK AO2 SLP364 T11721194 FZRANO
KEGE 171256Z AUTO 00000KT 10SM CLR M17/M19 A3028 RMK AO2 SLP352 T11671194 FZRANO
KEGE 171156Z AUTO 00000KT 10SM CLR M17/M19 A3028 RMK AO2 SLP349 T11671189 11133 21172 58005 FZRANO
KEGE 171056Z AUTO 13003KT 10SM CLR M16/M18 A3029 RMK AO2 SLP343 T11611183 FZRANO
KEGE 170956Z AUTO 12004KT 10SM CLR M16/M18 A3030 RMK AO2 SLP347 T11561178 FZRANO
KEGE 170856Z AUTO 00000KT 10SM CLR M15/M17 A3030 RMK AO2 SLP348 T11501167 50001 FZRANO
KEGE 170756Z AUTO 12005KT 10SM CLR M14/M16 A3030 RMK AO2 SLP353 T11391161 FZRANO
KEGE 170656Z AUTO 12003KT 10SM CLR M13/M16 A3030 RMK AO2 SLP357 T11331156 FZRANO
KEGE 170556Z AUTO 09005KT 10SM CLR M13/M16 A3030 RMK AO2 SLP364 T11331156 11044 21133 410221183 52004 FZRANO
KEGE 170456Z AUTO 00000KT 10SM CLR M12/M14 A3029 RMK AO2 SLP365 T11171144 FZRANO
KEGE 170356Z AUTO 10005KT 10SM CLR M11/M14 A3029 RMK AO2 SLP366 T11061144 FZRANO
KEGE 170256Z AUTO 10006KT 10SM CLR M10/M13 A3029 RMK AO2 SLP370 T11001133 51006 FZRANO
KEGE 170156Z AUTO 09008KT 10SM CLR M08/M12 A3028 RMK AO2 SLP363 T10831122 FZRANO
KEGE 170056Z 00000KT 10SM CLR M06/M12 A3028 RMK AO2 SLP354 T10611117
KEGE 162356Z 08005KT 10SM CLR M04/M11 A3026 RMK AO2 SLP341 T10441106 11022 21111 56008